sensor_id;sensor_type;location;lat;lon;timestamp;temperature;humidity
33580;DHT22;19909;43.644;-79.438;2024-03-08T00:00:17;22.50;31.90
33580;DHT22;19909;43.644;-79.438;2024-03-08T00:02:48;22.50;32.00
33580;DHT22;19909;43.644;-79.438;2024-03-08T00:05:16;22.40;32.00
33580;DHT22;19909;43.644;-79.438;2024-03-08T00:07:44;22.40;32.10
33580;DHT22;19909;43.644;-79.438;2024-03-08T00:10:12;22.30;32.00
33580;DHT22;19909;43.644;-79.438;2024-03-08T00:12:40;22.30;32.00
33580;DHT22;19909;43.644;-79.438;2024-03-08T00:15:10;22.30;32.00
33580;DHT22;19909;43.644;-79.438;2024-03-08T00:17:43;22.40;32.10
33580;DHT22;19909;43.644;-79.438;2024-03-08T00:20:10;22.50;32.20
33580;DHT22;19909;43.644;-79.438;2024-03-08T00:22:37;22.60;32.10
33580;DHT22;19909;43.644;-79.438;2024-03-08T00:25:05;22.70;32.00
33580;DHT22;19909;43.644;-79.438;2024-03-08T00:27:31;22.80;31.90
33580;DHT22;19909;43.644;-79.438;2024-03-08T00:30:05;22.90;31.70
33580;DHT22;19909;43.644;-79.438;2024-03-08T00:32:32;22.90;31.70
33580;DHT22;19909;43.644;-79.438;2024-03-08T00:34:58;22.90;31.70
33580;DHT22;19909;43.644;-79.438;2024-03-08T00:37:25;22.80;31.70
33580;DHT22;19909;43.644;-79.438;2024-03-08T00:39:52;22.80;31.80
33580;DHT22;19909;43.644;-79.438;2024-03-08T00:42:19;22.70;31.80
33580;DHT22;19909;43.644;-79.438;2024-03-08T00:44:47;22.70;31.80
33580;DHT22;19909;43.644;-79.438;2024-03-08T00:47:17;22.60;31.80
33580;DHT22;19909;43.644;-79.438;2024-03-08T00:49:43;22.60;31.90
33580;DHT22;19909;43.644;-79.438;2024-03-08T00:52:09;22.50;31.90
33580;DHT22;19909;43.644;-79.438;2024-03-08T00:54:36;22.40;31.90
33580;DHT22;19909;43.644;-79.438;2024-03-08T00:57:03;22.40;31.90
33580;DHT22;19909;43.644;-79.438;2024-03-08T00:59:30;22.40;32.00
33580;DHT22;19909;43.644;-79.438;2024-03-08T01:01:59;22.30;32.10
33580;DHT22;19909;43.644;-79.438;2024-03-08T01:04:28;22.30;32.00
33580;DHT22;19909;43.644;-79.438;2024-03-08T01:06:55;22.20;32.10
33580;DHT22;19909;43.644;-79.438;2024-03-08T01:09:23;22.20;32.10
33580;DHT22;19909;43.644;-79.438;2024-03-08T01:11:49;22.20;32.10
33580;DHT22;19909;43.644;-79.438;2024-03-08T01:14:16;22.10;32.20
33580;DHT22;19909;43.644;-79.438;2024-03-08T01:16:43;22.20;32.10
33580;DHT22;19909;43.644;-79.438;2024-03-08T01:19:09;22.20;32.10
33580;DHT22;19909;43.644;-79.438;2024-03-08T01:21:35;22.30;32.10
33580;DHT22;19909;43.644;-79.438;2024-03-08T01:24:05;22.40;32.10
33580;DHT22;19909;43.644;-79.438;2024-03-08T01:26:32;22.50;32.10
33580;DHT22;19909;43.644;-79.438;2024-03-08T01:29:00;22.70;32.00
33580;DHT22;19909;43.644;-79.438;2024-03-08T01:31:29;22.70;31.80
33580;DHT22;19909;43.644;-79.438;2024-03-08T01:33:59;22.80;31.70
33580;DHT22;19909;43.644;-79.438;2024-03-08T01:36:25;22.70;31.70
33580;DHT22;19909;43.644;-79.438;2024-03-08T01:38:52;22.70;31.70
33580;DHT22;19909;43.644;-79.438;2024-03-08T01:41:19;22.60;31.70
33580;DHT22;19909;43.644;-79.438;2024-03-08T01:43:48;22.60;31.80
33580;DHT22;19909;43.644;-79.438;2024-03-08T01:46:19;22.50;31.80
33580;DHT22;19909;43.644;-79.438;2024-03-08T01:48:45;22.40;31.90
33580;DHT22;19909;43.644;-79.438;2024-03-08T01:51:12;22.40;31.80
33580;DHT22;19909;43.644;-79.438;2024-03-08T01:53:42;22.30;31.90
33580;DHT22;19909;43.644;-79.438;2024-03-08T01:56:09;22.30;32.00
33580;DHT22;19909;43.644;-79.438;2024-03-08T01:58:36;22.30;32.00
33580;DHT22;19909;43.644;-79.438;2024-03-08T02:01:03;22.20;32.00
33580;DHT22;19909;43.644;-79.438;2024-03-08T02:03:29;22.20;32.10
33580;DHT22;19909;43.644;-79.438;2024-03-08T02:06:00;22.10;32.10
33580;DHT22;19909;43.644;-79.438;2024-03-08T02:08:27;22.10;32.10
33580;DHT22;19909;43.644;-79.438;2024-03-08T02:10:56;22.10;32.20
33580;DHT22;19909;43.644;-79.438;2024-03-08T02:13:23;22.10;32.20
33580;DHT22;19909;43.644;-79.438;2024-03-08T02:15:56;22.10;32.00
33580;DHT22;19909;43.644;-79.438;2024-03-08T02:18:26;22.20;32.00
33580;DHT22;19909;43.644;-79.438;2024-03-08T02:20:53;22.30;32.10
33580;DHT22;19909;43.644;-79.438;2024-03-08T02:23:20;22.40;32.00
33580;DHT22;19909;43.644;-79.438;2024-03-08T02:25:47;22.50;31.90
33580;DHT22;19909;43.644;-79.438;2024-03-08T02:28:14;22.70;31.90
33580;DHT22;19909;43.644;-79.438;2024-03-08T02:30:41;22.80;31.80
33580;DHT22;19909;43.644;-79.438;2024-03-08T02:33:08;22.80;31.50
33580;DHT22;19909;43.644;-79.438;2024-03-08T02:35:37;22.80;31.40
33580;DHT22;19909;43.644;-79.438;2024-03-08T02:38:04;22.80;31.50
33580;DHT22;19909;43.644;-79.438;2024-03-08T02:40:30;22.80;31.50
33580;DHT22;19909;43.644;-79.438;2024-03-08T02:42:56;22.70;31.50
33580;DHT22;19909;43.644;-79.438;2024-03-08T02:45:31;22.60;31.60
33580;DHT22;19909;43.644;-79.438;2024-03-08T02:48:00;22.50;31.60
33580;DHT22;19909;43.644;-79.438;2024-03-08T02:50:27;22.50;31.70
33580;DHT22;19909;43.644;-79.438;2024-03-08T02:52:54;22.50;31.70
33580;DHT22;19909;43.644;-79.438;2024-03-08T02:55:20;22.40;31.70
33580;DHT22;19909;43.644;-79.438;2024-03-08T02:57:47;22.30;31.70
33580;DHT22;19909;43.644;-79.438;2024-03-08T03:00:13;22.30;31.80
33580;DHT22;19909;43.644;-79.438;2024-03-08T03:02:41;22.20;31.80
33580;DHT22;19909;43.644;-79.438;2024-03-08T03:05:08;22.20;31.80
33580;DHT22;19909;43.644;-79.438;2024-03-08T03:07:38;22.20;31.90
33580;DHT22;19909;43.644;-79.438;2024-03-08T03:10:08;22.10;31.90
33580;DHT22;19909;43.644;-79.438;2024-03-08T03:12:34;22.10;31.90
33580;DHT22;19909;43.644;-79.438;2024-03-08T03:15:01;22.10;31.90
33580;DHT22;19909;43.644;-79.438;2024-03-08T03:17:28;22.20;31.80
33580;DHT22;19909;43.644;-79.438;2024-03-08T03:19:55;22.20;31.90
33580;DHT22;19909;43.644;-79.438;2024-03-08T03:22:22;22.30;31.80
33580;DHT22;19909;43.644;-79.438;2024-03-08T03:24:52;22.40;31.70
33580;DHT22;19909;43.644;-79.438;2024-03-08T03:27:19;22.60;31.70
33580;DHT22;19909;43.644;-79.438;2024-03-08T03:29:45;22.70;31.70
33580;DHT22;19909;43.644;-79.438;2024-03-08T03:32:12;22.80;31.50
33580;DHT22;19909;43.644;-79.438;2024-03-08T03:34:39;22.80;31.30
33580;DHT22;19909;43.644;-79.438;2024-03-08T03:37:06;22.80;31.30
33580;DHT22;19909;43.644;-79.438;2024-03-08T03:39:34;22.70;31.30
33580;DHT22;19909;43.644;-79.438;2024-03-08T03:42:06;22.70;31.50
33580;DHT22;19909;43.644;-79.438;2024-03-08T03:44:33;22.60;31.50
33580;DHT22;19909;43.644;-79.438;2024-03-08T03:46:59;22.60;31.50
33580;DHT22;19909;43.644;-79.438;2024-03-08T03:49:27;22.50;31.60
33580;DHT22;19909;43.644;-79.438;2024-03-08T03:51:54;22.50;31.60
33580;DHT22;19909;43.644;-79.438;2024-03-08T03:54:20;22.40;31.60
33580;DHT22;19909;43.644;-79.438;2024-03-08T03:56:47;22.40;31.60
33580;DHT22;19909;43.644;-79.438;2024-03-08T03:59:17;22.30;31.70
33580;DHT22;19909;43.644;-79.438;2024-03-08T04:01:44;22.30;31.70
33580;DHT22;19909;43.644;-79.438;2024-03-08T04:04:13;22.20;31.70
33580;DHT22;19909;43.644;-79.438;2024-03-08T04:06:39;22.20;31.80
33580;DHT22;19909;43.644;-79.438;2024-03-08T04:09:05;22.10;31.70
33580;DHT22;19909;43.644;-79.438;2024-03-08T04:11:31;22.20;31.70
33580;DHT22;19909;43.644;-79.438;2024-03-08T04:13:58;22.30;31.70
33580;DHT22;19909;43.644;-79.438;2024-03-08T04:16:25;22.30;31.70
33580;DHT22;19909;43.644;-79.438;2024-03-08T04:18:52;22.40;31.60
33580;DHT22;19909;43.644;-79.438;2024-03-08T04:21:18;22.60;31.60
33580;DHT22;19909;43.644;-79.438;2024-03-08T04:23:50;22.70;31.60
33580;DHT22;19909;43.644;-79.438;2024-03-08T04:26:16;22.90;31.60
33580;DHT22;19909;43.644;-79.438;2024-03-08T04:28:42;23.00;31.40
33580;DHT22;19909;43.644;-79.438;2024-03-08T04:31:11;23.10;31.20
33580;DHT22;19909;43.644;-79.438;2024-03-08T04:33:37;23.10;31.00
33580;DHT22;19909;43.644;-79.438;2024-03-08T04:36:04;23.10;31.00
33580;DHT22;19909;43.644;-79.438;2024-03-08T04:38:37;23.10;31.00
33580;DHT22;19909;43.644;-79.438;2024-03-08T04:41:07;23.00;31.10
33580;DHT22;19909;43.644;-79.438;2024-03-08T04:43:34;22.90;31.10
33580;DHT22;19909;43.644;-79.438;2024-03-08T04:46:11;22.80;31.10
33580;DHT22;19909;43.644;-79.438;2024-03-08T04:48:37;22.80;31.30
33580;DHT22;19909;43.644;-79.438;2024-03-08T04:51:04;22.70;31.20
33580;DHT22;19909;43.644;-79.438;2024-03-08T04:53:30;22.70;31.30
33580;DHT22;19909;43.644;-79.438;2024-03-08T04:55:59;22.60;31.30
33580;DHT22;19909;43.644;-79.438;2024-03-08T04:58:29;22.50;31.40
33580;DHT22;19909;43.644;-79.438;2024-03-08T05:00:55;22.40;31.40
33580;DHT22;19909;43.644;-79.438;2024-03-08T05:03:24;22.40;31.40
33580;DHT22;19909;43.644;-79.438;2024-03-08T05:05:52;22.30;31.50
33580;DHT22;19909;43.644;-79.438;2024-03-08T05:08:19;22.30;31.50
33580;DHT22;19909;43.644;-79.438;2024-03-08T05:10:46;22.30;31.50
33580;DHT22;19909;43.644;-79.438;2024-03-08T05:13:12;22.40;31.50
33580;DHT22;19909;43.644;-79.438;2024-03-08T05:15:41;22.50;31.50
33580;DHT22;19909;43.644;-79.438;2024-03-08T05:18:08;22.60;31.50
33580;DHT22;19909;43.644;-79.438;2024-03-08T05:20:37;22.70;31.40
33580;DHT22;19909;43.644;-79.438;2024-03-08T05:23:07;22.80;31.40
33580;DHT22;19909;43.644;-79.438;2024-03-08T05:25:34;23.00;31.40
33580;DHT22;19909;43.644;-79.438;2024-03-08T05:28:00;23.10;31.20
33580;DHT22;19909;43.644;-79.438;2024-03-08T05:30:27;23.20;31.00
33580;DHT22;19909;43.644;-79.438;2024-03-08T05:32:55;23.20;30.80
33580;DHT22;19909;43.644;-79.438;2024-03-08T05:35:23;23.20;30.80
33580;DHT22;19909;43.644;-79.438;2024-03-08T05:37:50;23.10;30.80
33580;DHT22;19909;43.644;-79.438;2024-03-08T05:40:17;23.00;30.90
33580;DHT22;19909;43.644;-79.438;2024-03-08T05:42:43;23.00;31.00
33580;DHT22;19909;43.644;-79.438;2024-03-08T05:45:09;22.90;30.90
33580;DHT22;19909;43.644;-79.438;2024-03-08T05:47:36;22.80;30.90
33580;DHT22;19909;43.644;-79.438;2024-03-08T05:50:05;22.80;31.00
33580;DHT22;19909;43.644;-79.438;2024-03-08T05:52:33;22.70;31.10
33580;DHT22;19909;43.644;-79.438;2024-03-08T05:54:59;22.70;31.20
33580;DHT22;19909;43.644;-79.438;2024-03-08T05:57:26;22.60;31.20
33580;DHT22;19909;43.644;-79.438;2024-03-08T05:59:52;22.50;31.20
33580;DHT22;19909;43.644;-79.438;2024-03-08T06:02:19;22.50;31.30
33580;DHT22;19909;43.644;-79.438;2024-03-08T06:04:46;22.40;31.30
33580;DHT22;19909;43.644;-79.438;2024-03-08T06:07:12;22.40;31.40
33580;DHT22;19909;43.644;-79.438;2024-03-08T06:09:39;22.40;31.90
33580;DHT22;19909;43.644;-79.438;2024-03-08T06:12:06;22.40;31.30
33580;DHT22;19909;43.644;-79.438;2024-03-08T06:14:32;22.50;31.20
33580;DHT22;19909;43.644;-79.438;2024-03-08T06:16:59;22.60;31.20
33580;DHT22;19909;43.644;-79.438;2024-03-08T06:19:26;22.70;31.20
33580;DHT22;19909;43.644;-79.438;2024-03-08T06:21:52;22.80;31.10
33580;DHT22;19909;43.644;-79.438;2024-03-08T06:24:19;22.90;31.10
33580;DHT22;19909;43.644;-79.438;2024-03-08T06:26:45;23.10;31.00
33580;DHT22;19909;43.644;-79.438;2024-03-08T06:29:11;23.20;30.80
33580;DHT22;19909;43.644;-79.438;2024-03-08T06:31:38;23.30;30.50
33580;DHT22;19909;43.644;-79.438;2024-03-08T06:34:07;23.20;30.50
33580;DHT22;19909;43.644;-79.438;2024-03-08T06:36:34;23.20;30.40
33580;DHT22;19909;43.644;-79.438;2024-03-08T06:39:00;23.20;30.60
33580;DHT22;19909;43.644;-79.438;2024-03-08T06:41:27;23.10;30.60
33580;DHT22;19909;43.644;-79.438;2024-03-08T06:43:53;23.00;30.60
33580;DHT22;19909;43.644;-79.438;2024-03-08T06:46:23;22.90;30.70
33580;DHT22;19909;43.644;-79.438;2024-03-08T06:48:49;22.90;30.70
33580;DHT22;19909;43.644;-79.438;2024-03-08T06:51:16;22.80;30.80
33580;DHT22;19909;43.644;-79.438;2024-03-08T06:53:43;22.70;30.80
33580;DHT22;19909;43.644;-79.438;2024-03-08T06:56:09;22.70;30.80
33580;DHT22;19909;43.644;-79.438;2024-03-08T06:58:35;22.60;30.80
33580;DHT22;19909;43.644;-79.438;2024-03-08T07:01:02;22.60;30.90
33580;DHT22;19909;43.644;-79.438;2024-03-08T07:03:30;22.50;30.90
33580;DHT22;19909;43.644;-79.438;2024-03-08T07:05:56;22.50;30.80
33580;DHT22;19909;43.644;-79.438;2024-03-08T07:08:27;22.60;30.90
33580;DHT22;19909;43.644;-79.438;2024-03-08T07:10:54;22.70;30.90
33580;DHT22;19909;43.644;-79.438;2024-03-08T07:13:20;22.80;30.90
33580;DHT22;19909;43.644;-79.438;2024-03-08T07:15:47;22.90;30.90
33580;DHT22;19909;43.644;-79.438;2024-03-08T07:18:13;23.00;30.80
33580;DHT22;19909;43.644;-79.438;2024-03-08T07:20:41;23.20;30.80
33580;DHT22;19909;43.644;-79.438;2024-03-08T07:23:09;23.30;30.60
33580;DHT22;19909;43.644;-79.438;2024-03-08T07:25:36;23.40;30.30
33580;DHT22;19909;43.644;-79.438;2024-03-08T07:28:04;23.40;30.20
33580;DHT22;19909;43.644;-79.438;2024-03-08T07:30:32;23.40;30.10
33580;DHT22;19909;43.644;-79.438;2024-03-08T07:33:21;23.30;30.10
33580;DHT22;19909;43.644;-79.438;2024-03-08T07:35:48;23.20;30.20
33580;DHT22;19909;43.644;-79.438;2024-03-08T07:38:16;23.10;30.10
33580;DHT22;19909;43.644;-79.438;2024-03-08T07:40:43;23.00;30.30
33580;DHT22;19909;43.644;-79.438;2024-03-08T07:43:12;23.00;30.40
33580;DHT22;19909;43.644;-79.438;2024-03-08T07:45:39;22.90;30.40
33580;DHT22;19909;43.644;-79.438;2024-03-08T07:48:06;22.80;30.40
33580;DHT22;19909;43.644;-79.438;2024-03-08T07:50:40;22.80;31.10
33580;DHT22;19909;43.644;-79.438;2024-03-08T07:53:09;22.70;30.50
33580;DHT22;19909;43.644;-79.438;2024-03-08T07:55:36;22.60;30.50
33580;DHT22;19909;43.644;-79.438;2024-03-08T07:58:03;22.60;30.50
33580;DHT22;19909;43.644;-79.438;2024-03-08T08:00:30;22.50;30.60
33580;DHT22;19909;43.644;-79.438;2024-03-08T08:02:57;22.50;30.60
33580;DHT22;19909;43.644;-79.438;2024-03-08T08:05:23;22.60;30.60
33580;DHT22;19909;43.644;-79.438;2024-03-08T08:07:49;22.70;30.60
33580;DHT22;19909;43.644;-79.438;2024-03-08T08:10:18;22.80;30.60
33580;DHT22;19909;43.644;-79.438;2024-03-08T08:12:50;22.90;30.60
33580;DHT22;19909;43.644;-79.438;2024-03-08T08:15:23;23.00;30.60
33580;DHT22;19909;43.644;-79.438;2024-03-08T08:17:50;23.20;30.60
33580;DHT22;19909;43.644;-79.438;2024-03-08T08:20:18;23.30;30.40
33580;DHT22;19909;43.644;-79.438;2024-03-08T08:22:44;23.40;30.10
33580;DHT22;19909;43.644;-79.438;2024-03-08T08:25:10;23.40;30.00
33580;DHT22;19909;43.644;-79.438;2024-03-08T08:27:39;23.30;30.00
33580;DHT22;19909;43.644;-79.438;2024-03-08T08:30:11;23.30;30.10
33580;DHT22;19909;43.644;-79.438;2024-03-08T08:32:38;23.20;30.10
33580;DHT22;19909;43.644;-79.438;2024-03-08T08:35:13;23.10;30.20
33580;DHT22;19909;43.644;-79.438;2024-03-08T08:37:40;23.00;30.10
33580;DHT22;19909;43.644;-79.438;2024-03-08T08:40:06;23.00;30.20
33580;DHT22;19909;43.644;-79.438;2024-03-08T08:42:37;22.90;30.40
33580;DHT22;19909;43.644;-79.438;2024-03-08T08:45:06;22.80;30.30
33580;DHT22;19909;43.644;-79.438;2024-03-08T08:47:36;22.80;30.40
33580;DHT22;19909;43.644;-79.438;2024-03-08T08:50:04;22.70;30.40
33580;DHT22;19909;43.644;-79.438;2024-03-08T08:52:31;22.70;30.50
33580;DHT22;19909;43.644;-79.438;2024-03-08T08:54:58;22.60;30.50
33580;DHT22;19909;43.644;-79.438;2024-03-08T08:57:24;22.60;30.50
33580;DHT22;19909;43.644;-79.438;2024-03-08T08:59:50;22.50;30.40
33580;DHT22;19909;43.644;-79.438;2024-03-08T09:02:17;22.70;30.50
33580;DHT22;19909;43.644;-79.438;2024-03-08T09:04:46;22.70;30.50
33580;DHT22;19909;43.644;-79.438;2024-03-08T09:07:14;22.80;30.50
33580;DHT22;19909;43.644;-79.438;2024-03-08T09:09:42;22.90;30.50
33580;DHT22;19909;43.644;-79.438;2024-03-08T09:12:09;23.00;30.40
33580;DHT22;19909;43.644;-79.438;2024-03-08T09:14:40;23.20;30.40
33580;DHT22;19909;43.644;-79.438;2024-03-08T09:17:07;23.40;30.30
33580;DHT22;19909;43.644;-79.438;2024-03-08T09:19:36;23.40;30.10
33580;DHT22;19909;43.644;-79.438;2024-03-08T09:22:03;23.50;30.00
33580;DHT22;19909;43.644;-79.438;2024-03-08T09:24:30;23.40;29.90
33580;DHT22;19909;43.644;-79.438;2024-03-08T09:26:57;23.40;30.50
33580;DHT22;19909;43.644;-79.438;2024-03-08T09:29:26;23.30;29.90
33580;DHT22;19909;43.644;-79.438;2024-03-08T09:31:54;23.20;30.00
33580;DHT22;19909;43.644;-79.438;2024-03-08T09:34:21;23.10;30.00
33580;DHT22;19909;43.644;-79.438;2024-03-08T09:36:47;23.00;30.00
33580;DHT22;19909;43.644;-79.438;2024-03-08T09:39:13;23.00;30.20
33580;DHT22;19909;43.644;-79.438;2024-03-08T09:41:43;22.90;30.20
33580;DHT22;19909;43.644;-79.438;2024-03-08T09:44:10;22.80;30.20
33580;DHT22;19909;43.644;-79.438;2024-03-08T09:46:36;22.80;30.30
33580;DHT22;19909;43.644;-79.438;2024-03-08T09:49:03;22.70;30.40
33580;DHT22;19909;43.644;-79.438;2024-03-08T09:51:34;22.70;30.40
33580;DHT22;19909;43.644;-79.438;2024-03-08T09:54:05;22.60;30.40
33580;DHT22;19909;43.644;-79.438;2024-03-08T09:56:36;22.60;30.40
33580;DHT22;19909;43.644;-79.438;2024-03-08T09:59:04;22.60;30.40
33580;DHT22;19909;43.644;-79.438;2024-03-08T10:01:49;22.70;30.40
33580;DHT22;19909;43.644;-79.438;2024-03-08T10:04:16;22.80;30.50
33580;DHT22;19909;43.644;-79.438;2024-03-08T10:06:43;22.90;30.50
33580;DHT22;19909;43.644;-79.438;2024-03-08T10:09:09;23.00;30.40
33580;DHT22;19909;43.644;-79.438;2024-03-08T10:11:37;23.10;30.40
33580;DHT22;19909;43.644;-79.438;2024-03-08T10:14:05;23.30;30.30
33580;DHT22;19909;43.644;-79.438;2024-03-08T10:16:32;23.40;30.20
33580;DHT22;19909;43.644;-79.438;2024-03-08T10:18:58;23.50;30.00
33580;DHT22;19909;43.644;-79.438;2024-03-08T10:21:26;23.50;30.00
33580;DHT22;19909;43.644;-79.438;2024-03-08T10:23:53;23.40;30.00
33580;DHT22;19909;43.644;-79.438;2024-03-08T10:26:20;23.30;30.00
33580;DHT22;19909;43.644;-79.438;2024-03-08T10:28:48;23.20;30.00
33580;DHT22;19909;43.644;-79.438;2024-03-08T10:31:19;23.20;30.10
33580;DHT22;19909;43.644;-79.438;2024-03-08T10:33:49;23.10;30.20
33580;DHT22;19909;43.644;-79.438;2024-03-08T10:36:16;23.10;30.30
33580;DHT22;19909;43.644;-79.438;2024-03-08T10:38:43;23.00;30.30
33580;DHT22;19909;43.644;-79.438;2024-03-08T10:41:12;22.90;30.30
33580;DHT22;19909;43.644;-79.438;2024-03-08T10:49:17;22.70;30.50
33580;DHT22;19909;43.644;-79.438;2024-03-08T10:51:44;22.60;30.60
33580;DHT22;19909;43.644;-79.438;2024-03-08T10:54:12;22.60;30.60
33580;DHT22;19909;43.644;-79.438;2024-03-08T10:56:41;22.60;30.50
33580;DHT22;19909;43.644;-79.438;2024-03-08T10:59:10;22.70;30.50
33580;DHT22;19909;43.644;-79.438;2024-03-08T11:01:37;22.80;30.60
33580;DHT22;19909;43.644;-79.438;2024-03-08T11:04:10;22.80;30.40
33580;DHT22;19909;43.644;-79.438;2024-03-08T11:09:27;23.10;30.50
33580;DHT22;19909;43.644;-79.438;2024-03-08T11:14:47;23.40;30.20
33580;DHT22;19909;43.644;-79.438;2024-03-08T11:19:55;23.50;30.10
33580;DHT22;19909;43.644;-79.438;2024-03-08T11:22:33;23.40;30.20
33580;DHT22;19909;43.644;-79.438;2024-03-08T11:25:03;23.30;30.10
33580;DHT22;19909;43.644;-79.438;2024-03-08T11:27:38;23.20;30.20
33580;DHT22;19909;43.644;-79.438;2024-03-08T11:30:07;23.20;30.30
33580;DHT22;19909;43.644;-79.438;2024-03-08T11:32:38;23.10;30.30
33580;DHT22;19909;43.644;-79.438;2024-03-08T11:35:08;23.00;30.40
33580;DHT22;19909;43.644;-79.438;2024-03-08T11:37:44;22.90;30.40
33580;DHT22;19909;43.644;-79.438;2024-03-08T11:40:14;22.90;30.50
33580;DHT22;19909;43.644;-79.438;2024-03-08T11:42:45;22.80;30.50
33580;DHT22;19909;43.644;-79.438;2024-03-08T11:45:17;22.70;30.60
33580;DHT22;19909;43.644;-79.438;2024-03-08T11:47:47;22.80;30.50
33580;DHT22;19909;43.644;-79.438;2024-03-08T11:50:15;22.80;30.50
33580;DHT22;19909;43.644;-79.438;2024-03-08T11:52:44;22.90;30.50
33580;DHT22;19909;43.644;-79.438;2024-03-08T11:55:11;23.00;30.50
33580;DHT22;19909;43.644;-79.438;2024-03-08T11:57:38;23.10;30.50
33580;DHT22;19909;43.644;-79.438;2024-03-08T12:00:06;23.20;30.40
33580;DHT22;19909;43.644;-79.438;2024-03-08T12:02:33;23.30;30.30
33580;DHT22;19909;43.644;-79.438;2024-03-08T12:05:04;23.50;30.20
33580;DHT22;19909;43.644;-79.438;2024-03-08T12:07:35;23.50;30.00
33580;DHT22;19909;43.644;-79.438;2024-03-08T12:10:21;23.50;30.00
33580;DHT22;19909;43.644;-79.438;2024-03-08T12:12:51;23.50;30.00
33580;DHT22;19909;43.644;-79.438;2024-03-08T12:15:19;23.40;30.00
33580;DHT22;19909;43.644;-79.438;2024-03-08T12:17:48;23.30;30.00
33580;DHT22;19909;43.644;-79.438;2024-03-08T12:20:23;23.30;30.10
33580;DHT22;19909;43.644;-79.438;2024-03-08T12:22:50;23.20;30.10
33580;DHT22;19909;43.644;-79.438;2024-03-08T12:25:25;23.10;30.10
33580;DHT22;19909;43.644;-79.438;2024-03-08T12:27:52;23.00;30.20
33580;DHT22;19909;43.644;-79.438;2024-03-08T12:30:24;23.00;30.40
33580;DHT22;19909;43.644;-79.438;2024-03-08T12:32:57;22.90;30.40
33580;DHT22;19909;43.644;-79.438;2024-03-08T12:35:25;22.80;30.40
33580;DHT22;19909;43.644;-79.438;2024-03-08T12:37:56;22.90;30.40
33580;DHT22;19909;43.644;-79.438;2024-03-08T12:40:31;22.90;30.40
33580;DHT22;19909;43.644;-79.438;2024-03-08T12:42:59;23.00;30.40
33580;DHT22;19909;43.644;-79.438;2024-03-08T12:45:26;23.10;30.30
33580;DHT22;19909;43.644;-79.438;2024-03-08T12:47:55;23.20;30.30
33580;DHT22;19909;43.644;-79.438;2024-03-08T12:50:22;23.40;30.30
33580;DHT22;19909;43.644;-79.438;2024-03-08T12:52:51;23.50;30.10
33580;DHT22;19909;43.644;-79.438;2024-03-08T12:55:20;23.60;30.00
33580;DHT22;19909;43.644;-79.438;2024-03-08T12:57:48;23.60;30.00
33580;DHT22;19909;43.644;-79.438;2024-03-08T13:00:15;23.60;29.90
33580;DHT22;19909;43.644;-79.438;2024-03-08T13:02:49;23.50;29.90
33580;DHT22;19909;43.644;-79.438;2024-03-08T13:05:17;23.40;30.00
33580;DHT22;19909;43.644;-79.438;2024-03-08T13:07:43;23.30;30.00
33580;DHT22;19909;43.644;-79.438;2024-03-08T13:10:17;23.30;30.00
33580;DHT22;19909;43.644;-79.438;2024-03-08T13:12:46;23.20;30.00
33580;DHT22;19909;43.644;-79.438;2024-03-08T13:15:12;23.10;30.00
33580;DHT22;19909;43.644;-79.438;2024-03-08T13:17:48;23.10;30.20
33580;DHT22;19909;43.644;-79.438;2024-03-08T13:20:15;22.90;30.30
33580;DHT22;19909;43.644;-79.438;2024-03-08T13:22:48;22.90;30.40
33580;DHT22;19909;43.644;-79.438;2024-03-08T13:25:14;22.80;30.40
33580;DHT22;19909;43.644;-79.438;2024-03-08T13:27:41;22.80;30.40
33580;DHT22;19909;43.644;-79.438;2024-03-08T13:30:13;22.70;30.50
33580;DHT22;19909;43.644;-79.438;2024-03-08T13:32:41;22.60;30.50
33580;DHT22;19909;43.644;-79.438;2024-03-08T13:35:13;22.60;30.70
33580;DHT22;19909;43.644;-79.438;2024-03-08T13:37:42;22.70;30.70
33580;DHT22;19909;43.644;-79.438;2024-03-08T13:40:10;22.70;30.60
33580;DHT22;19909;43.644;-79.438;2024-03-08T13:42:45;22.80;30.70
33580;DHT22;19909;43.644;-79.438;2024-03-08T13:45:13;22.90;30.60
33580;DHT22;19909;43.644;-79.438;2024-03-08T13:47:40;23.00;30.50
33580;DHT22;19909;43.644;-79.438;2024-03-08T13:50:08;23.20;30.50
33580;DHT22;19909;43.644;-79.438;2024-03-08T13:52:38;23.30;30.40
33580;DHT22;19909;43.644;-79.438;2024-03-08T13:55:05;23.30;30.20
33580;DHT22;19909;43.644;-79.438;2024-03-08T13:57:32;23.40;30.20
33580;DHT22;19909;43.644;-79.438;2024-03-08T13:59:59;23.30;30.20
33580;DHT22;19909;43.644;-79.438;2024-03-08T14:02:25;23.20;30.20
33580;DHT22;19909;43.644;-79.438;2024-03-08T14:04:57;23.20;30.20
33580;DHT22;19909;43.644;-79.438;2024-03-08T14:07:27;23.10;30.20
33580;DHT22;19909;43.644;-79.438;2024-03-08T14:09:56;23.00;30.40
33580;DHT22;19909;43.644;-79.438;2024-03-08T14:12:22;22.90;30.40
33580;DHT22;19909;43.644;-79.438;2024-03-08T14:14:53;22.90;30.60
33580;DHT22;19909;43.644;-79.438;2024-03-08T14:17:19;22.90;30.60
33580;DHT22;19909;43.644;-79.438;2024-03-08T14:19:45;22.80;30.70
33580;DHT22;19909;43.644;-79.438;2024-03-08T14:22:12;22.70;30.70
33580;DHT22;19909;43.644;-79.438;2024-03-08T14:24:43;22.70;30.80
33580;DHT22;19909;43.644;-79.438;2024-03-08T14:27:10;22.70;30.80
33580;DHT22;19909;43.644;-79.438;2024-03-08T14:29:38;22.60;30.80
33580;DHT22;19909;43.644;-79.438;2024-03-08T14:32:06;22.50;30.80
33580;DHT22;19909;43.644;-79.438;2024-03-08T14:34:33;22.50;31.00
33580;DHT22;19909;43.644;-79.438;2024-03-08T14:37:00;22.40;31.00
33580;DHT22;19909;43.644;-79.438;2024-03-08T14:39:27;22.50;30.90
33580;DHT22;19909;43.644;-79.438;2024-03-08T14:41:56;22.50;30.90
33580;DHT22;19909;43.644;-79.438;2024-03-08T14:44:24;22.60;30.90
33580;DHT22;19909;43.644;-79.438;2024-03-08T14:46:59;22.80;31.00
33580;DHT22;19909;43.644;-79.438;2024-03-08T14:49:26;22.90;30.90
33580;DHT22;19909;43.644;-79.438;2024-03-08T14:51:55;23.00;30.80
33580;DHT22;19909;43.644;-79.438;2024-03-08T14:54:24;23.20;30.70
33580;DHT22;19909;43.644;-79.438;2024-03-08T14:56:50;23.30;30.60
33580;DHT22;19909;43.644;-79.438;2024-03-08T14:59:16;23.30;30.40
33580;DHT22;19909;43.644;-79.438;2024-03-08T15:01:43;23.30;30.40
33580;DHT22;19909;43.644;-79.438;2024-03-08T15:04:10;23.20;30.30
33580;DHT22;19909;43.644;-79.438;2024-03-08T15:06:37;23.20;30.30
33580;DHT22;19909;43.644;-79.438;2024-03-08T15:09:04;23.20;30.40
33580;DHT22;19909;43.644;-79.438;2024-03-08T15:11:49;23.10;30.50
33580;DHT22;19909;43.644;-79.438;2024-03-08T15:14:15;22.90;30.60
33580;DHT22;19909;43.644;-79.438;2024-03-08T15:16:45;22.90;30.70
33580;DHT22;19909;43.644;-79.438;2024-03-08T15:19:13;22.80;30.80
33580;DHT22;19909;43.644;-79.438;2024-03-08T15:21:42;22.80;30.80